CTV9461 WIII-WAFF
Flight info
| Callsign | CTV9461 |
|---|---|
| Flight time | 2h 16m |
| Altitude | 37000 |
| Route | EGUKO T9 ELAPA |
| Aircraft | A320/M-SDE3FGHIRWY/LB1 |
Departure
| Time | 2026-04-23 01:58 |
|---|---|
| Airport | Soekarno-Hatta International Airport (WIII) |
Arrival
| Time | 2026-04-23 04:14 |
|---|---|
| Airport | Mutiara - SIS Al-Jufrie Airport (WAFF) |
| Time | Latitude | Longitude | Altitude | Speed | Heading |
|---|---|---|---|---|---|
| 2026-04-23 01:39 | -6.13205 | 106.65147 | 0 ft | 0 kts | 55° |
| 2026-04-23 01:48 | -6.13211 | 106.65140 | 38 ft | 4 kts | 55° |
| 2026-04-23 01:48 | -6.13226 | 106.65118 | 25 ft | 4 kts | 58° |
| 2026-04-23 01:48 | -6.13233 | 106.65096 | 37 ft | 4 kts | 126° |
| 2026-04-23 01:48 | -6.13217 | 106.65084 | 34 ft | 4 kts | 150° |
| 2026-04-23 01:49 | -6.13213 | 106.65081 | 34 ft | 0 kts | 150° |
| 2026-04-23 01:51 | -6.13215 | 106.65082 | 34 ft | 2 kts | 150° |
| 2026-04-23 01:51 | -6.13238 | 106.65095 | 37 ft | 6 kts | 150° |
| 2026-04-23 01:52 | -6.13274 | 106.65124 | 38 ft | 7 kts | 130° |
| 2026-04-23 01:52 | -6.13302 | 106.65163 | 38 ft | 8 kts | 126° |
| 2026-04-23 01:52 | -6.13333 | 106.65199 | 38 ft | 7 kts | 140° |
| 2026-04-23 01:52 | -6.13383 | 106.65222 | 38 ft | 8 kts | 159° |
| 2026-04-23 01:53 | -6.13428 | 106.65239 | 38 ft | 6 kts | 159° |
| 2026-04-23 01:53 | -6.13479 | 106.65259 | 38 ft | 11 kts | 159° |
| 2026-04-23 01:53 | -6.13554 | 106.65287 | 38 ft | 9 kts | 165° |
| 2026-04-23 01:53 | -6.13605 | 106.65259 | 38 ft | 10 kts | 242° |
| 2026-04-23 01:54 | -6.13636 | 106.65183 | 37 ft | 15 kts | 248° |
| 2026-04-23 01:54 | -6.13677 | 106.65080 | 37 ft | 17 kts | 248° |
| 2026-04-23 01:54 | -6.13724 | 106.64962 | 39 ft | 19 kts | 248° |
| 2026-04-23 01:54 | -6.13777 | 106.64831 | 38 ft | 21 kts | 248° |
| 2026-04-23 01:55 | -6.13833 | 106.64690 | 38 ft | 22 kts | 248° |
| 2026-04-23 01:55 | -6.13887 | 106.64556 | 38 ft | 18 kts | 248° |
| 2026-04-23 01:55 | -6.13934 | 106.64442 | 36 ft | 19 kts | 248° |
| 2026-04-23 01:55 | -6.13981 | 106.64328 | 38 ft | 13 kts | 248° |
| 2026-04-23 01:56 | -6.14014 | 106.64272 | 38 ft | 8 kts | 216° |
| 2026-04-23 01:56 | -6.14069 | 106.64273 | 39 ft | 9 kts | 159° |
| 2026-04-23 01:56 | -6.14121 | 106.64295 | 37 ft | 9 kts | 158° |
| 2026-04-23 01:56 | -6.14170 | 106.64313 | 41 ft | 7 kts | 153° |
| 2026-04-23 01:57 | -6.14200 | 106.64347 | 41 ft | 8 kts | 118° |
| 2026-04-23 01:57 | -6.14232 | 106.64393 | 41 ft | 7 kts | 135° |
| 2026-04-23 01:57 | -6.14229 | 106.64427 | 41 ft | 5 kts | 68° |
| 2026-04-23 01:57 | -6.14221 | 106.64445 | 40 ft | 13 kts | 67° |
| 2026-04-23 01:58 | -6.14088 | 106.64779 | 39 ft | 86 kts | 68° |
| 2026-04-23 01:58 | -6.13793 | 106.65519 | 40 ft | 140 kts | 68° |
| 2026-04-23 01:58 | -6.13372 | 106.66571 | 70 ft | 180 kts | 69° |
| 2026-04-23 01:58 | -6.12930 | 106.67746 | 681 ft | 179 kts | 69° |
| 2026-04-23 01:59 | -6.12473 | 106.68913 | 1338 ft | 184 kts | 68° |
| 2026-04-23 01:59 | -6.11968 | 106.70164 | 1643 ft | 202 kts | 69° |
| 2026-04-23 01:59 | -6.11423 | 106.71539 | 1965 ft | 221 kts | 69° |
| 2026-04-23 01:59 | -6.10819 | 106.73055 | 2276 ft | 246 kts | 71° |
| 2026-04-23 02:00 | -6.10536 | 106.74775 | 2782 ft | 261 kts | 89° |
| 2026-04-23 02:00 | -6.10494 | 106.76618 | 3591 ft | 266 kts | 89° |
| 2026-04-23 02:00 | -6.10450 | 106.78489 | 4423 ft | 269 kts | 89° |
| 2026-04-23 02:00 | -6.10405 | 106.80381 | 5240 ft | 273 kts | 89° |
| 2026-04-23 02:01 | -6.10358 | 106.82297 | 6043 ft | 276 kts | 89° |
| 2026-04-23 02:01 | -6.10307 | 106.84235 | 6829 ft | 279 kts | 89° |
| 2026-04-23 02:01 | -6.10255 | 106.86199 | 7603 ft | 283 kts | 89° |
| 2026-04-23 02:01 | -6.10207 | 106.88183 | 8359 ft | 286 kts | 89° |
| 2026-04-23 02:02 | -6.10155 | 106.90193 | 9107 ft | 289 kts | 89° |
| 2026-04-23 02:02 | -6.10121 | 106.91536 | 9595 ft | 292 kts | 89° |
| 2026-04-23 02:02 | -6.10068 | 106.93586 | 10263 ft | 299 kts | 89° |
| 2026-04-23 02:02 | -6.10014 | 106.95750 | 10453 ft | 322 kts | 89° |
| 2026-04-23 02:03 | -6.09957 | 106.98064 | 10771 ft | 338 kts | 89° |
| 2026-04-23 02:03 | -6.09896 | 107.00443 | 11377 ft | 343 kts | 89° |
| 2026-04-23 02:03 | -6.09831 | 107.02854 | 12028 ft | 347 kts | 89° |
| 2026-04-23 02:03 | -6.09775 | 107.05289 | 12669 ft | 350 kts | 89° |
| 2026-04-23 02:04 | -6.09758 | 107.07747 | 13290 ft | 354 kts | 90° |
| 2026-04-23 02:04 | -6.09765 | 107.10230 | 13893 ft | 357 kts | 90° |
| 2026-04-23 02:04 | -6.09781 | 107.12734 | 14480 ft | 360 kts | 90° |
| 2026-04-23 02:04 | -6.09581 | 107.15249 | 15037 ft | 364 kts | 79° |
| 2026-04-23 02:05 | -6.08801 | 107.17678 | 15594 ft | 368 kts | 65° |
| 2026-04-23 02:05 | -6.07464 | 107.19877 | 16142 ft | 372 kts | 52° |
| 2026-04-23 02:05 | -6.05652 | 107.21741 | 16685 ft | 375 kts | 43° |
| 2026-04-23 02:05 | -6.03732 | 107.23487 | 17207 ft | 378 kts | 43° |
| 2026-04-23 02:06 | -6.01780 | 107.25273 | 17727 ft | 381 kts | 43° |
| 2026-04-23 02:06 | -5.99815 | 107.27075 | 18235 ft | 384 kts | 43° |
| 2026-04-23 02:06 | -5.97835 | 107.28894 | 18732 ft | 387 kts | 43° |
| 2026-04-23 02:06 | -5.95845 | 107.30724 | 19217 ft | 390 kts | 43° |
| 2026-04-23 02:07 | -5.93835 | 107.32571 | 19691 ft | 393 kts | 43° |
| 2026-04-23 02:07 | -5.91811 | 107.34429 | 20153 ft | 395 kts | 43° |
| 2026-04-23 02:07 | -5.89775 | 107.36300 | 20599 ft | 398 kts | 43° |
| 2026-04-23 02:07 | -5.87725 | 107.38184 | 21032 ft | 401 kts | 43° |
| 2026-04-23 02:08 | -5.85661 | 107.40078 | 21453 ft | 403 kts | 43° |
| 2026-04-23 02:08 | -5.83581 | 107.41984 | 21869 ft | 406 kts | 43° |
| 2026-04-23 02:08 | -5.81487 | 107.43901 | 22279 ft | 409 kts | 43° |
| 2026-04-23 02:08 | -5.79379 | 107.45833 | 22681 ft | 411 kts | 43° |
| 2026-04-23 02:09 | -5.77263 | 107.47775 | 23063 ft | 414 kts | 43° |
| 2026-04-23 02:09 | -5.75133 | 107.49731 | 23447 ft | 416 kts | 43° |
| 2026-04-23 02:09 | -5.72989 | 107.51694 | 23816 ft | 418 kts | 43° |
| 2026-04-23 02:09 | -5.70831 | 107.53667 | 24176 ft | 421 kts | 43° |
| 2026-04-23 02:10 | -5.68662 | 107.55651 | 24527 ft | 423 kts | 43° |
| 2026-04-23 02:10 | -5.66509 | 107.57619 | 24868 ft | 425 kts | 43° |
| 2026-04-23 02:10 | -5.64316 | 107.59625 | 25206 ft | 428 kts | 43° |
| 2026-04-23 02:10 | -5.62115 | 107.61643 | 25536 ft | 430 kts | 43° |
| 2026-04-23 02:11 | -5.59904 | 107.63671 | 25862 ft | 432 kts | 43° |
| 2026-04-23 02:11 | -5.57678 | 107.65711 | 26188 ft | 434 kts | 43° |
| 2026-04-23 02:11 | -5.55442 | 107.67759 | 26484 ft | 436 kts | 43° |
| 2026-04-23 02:11 | -5.53194 | 107.69814 | 26783 ft | 438 kts | 43° |
| 2026-04-23 02:12 | -5.50936 | 107.71877 | 27076 ft | 440 kts | 43° |
| 2026-04-23 02:12 | -5.48668 | 107.73953 | 27361 ft | 442 kts | 43° |
| 2026-04-23 02:12 | -5.46389 | 107.76039 | 27648 ft | 444 kts | 43° |
| 2026-04-23 02:12 | -5.44120 | 107.78147 | 27931 ft | 446 kts | 46° |
| 2026-04-23 02:13 | -5.42115 | 107.80525 | 28193 ft | 447 kts | 55° |
| 2026-04-23 02:13 | -5.40330 | 107.83085 | 28458 ft | 449 kts | 55° |
| 2026-04-23 02:13 | -5.38533 | 107.85659 | 28724 ft | 451 kts | 55° |
| 2026-04-23 02:13 | -5.36726 | 107.88239 | 28983 ft | 453 kts | 55° |
| 2026-04-23 02:14 | -5.34910 | 107.90825 | 29235 ft | 454 kts | 55° |
| 2026-04-23 02:14 | -5.33110 | 107.93388 | 29469 ft | 456 kts | 55° |
| 2026-04-23 02:14 | -5.31254 | 107.96032 | 29715 ft | 458 kts | 55° |
| 2026-04-23 02:14 | -5.29445 | 107.98613 | 29942 ft | 460 kts | 55° |
| 2026-04-23 02:15 | -5.25755 | 108.03877 | 30392 ft | 463 kts | 55° |
| 2026-04-23 02:15 | -5.23899 | 108.06522 | 30595 ft | 464 kts | 55° |
| 2026-04-23 02:15 | -5.22036 | 108.09175 | 30816 ft | 466 kts | 55° |
| 2026-04-23 02:16 | -5.20176 | 108.11828 | 31119 ft | 465 kts | 55° |
| 2026-04-23 02:16 | -5.18319 | 108.14478 | 31431 ft | 464 kts | 55° |
| 2026-04-23 02:16 | -5.16464 | 108.17121 | 31719 ft | 463 kts | 55° |
| 2026-04-23 02:16 | -5.14607 | 108.19762 | 32010 ft | 463 kts | 55° |
| 2026-04-23 02:17 | -5.12755 | 108.22395 | 32298 ft | 462 kts | 55° |
| 2026-04-23 02:17 | -5.10907 | 108.25030 | 32582 ft | 461 kts | 55° |
| 2026-04-23 02:17 | -5.09065 | 108.27662 | 32861 ft | 461 kts | 55° |
| 2026-04-23 02:17 | -5.07221 | 108.30296 | 33139 ft | 460 kts | 55° |
| 2026-04-23 02:18 | -5.05376 | 108.32917 | 33416 ft | 460 kts | 55° |
| 2026-04-23 02:18 | -5.03531 | 108.35534 | 33690 ft | 459 kts | 55° |
| 2026-04-23 02:18 | -5.01688 | 108.38150 | 33958 ft | 459 kts | 55° |
| 2026-04-23 02:18 | -4.99851 | 108.40762 | 34225 ft | 458 kts | 55° |
| 2026-04-23 02:19 | -4.98019 | 108.43372 | 34453 ft | 458 kts | 55° |
| 2026-04-23 02:19 | -4.96188 | 108.45983 | 34699 ft | 457 kts | 55° |
| 2026-04-23 02:19 | -4.94383 | 108.48558 | 34924 ft | 457 kts | 55° |
| 2026-04-23 02:19 | -4.92571 | 108.51144 | 35389 ft | 449 kts | 54° |
| 2026-04-23 02:20 | -4.90783 | 108.53696 | 35757 ft | 445 kts | 54° |
| 2026-04-23 02:20 | -4.89002 | 108.56233 | 35976 ft | 445 kts | 54° |
| 2026-04-23 02:20 | -4.87219 | 108.58768 | 36158 ft | 444 kts | 54° |
| 2026-04-23 02:20 | -4.85438 | 108.61297 | 36329 ft | 444 kts | 53° |
| 2026-04-23 02:21 | -4.83652 | 108.63830 | 36467 ft | 445 kts | 54° |
| 2026-04-23 02:21 | -4.81867 | 108.66362 | 36608 ft | 445 kts | 54° |
| 2026-04-23 02:21 | -4.80083 | 108.68898 | 36760 ft | 445 kts | 54° |
| 2026-04-23 02:21 | -4.78302 | 108.71434 | 36872 ft | 445 kts | 54° |
| 2026-04-23 02:22 | -4.76521 | 108.73971 | 36896 ft | 445 kts | 54° |
| 2026-04-23 02:22 | -4.72950 | 108.79055 | 36893 ft | 449 kts | 54° |
| 2026-04-23 02:23 | -4.69810 | 108.84489 | 36891 ft | 453 kts | 63° |
| 2026-04-23 02:23 | -4.67111 | 108.90201 | 36894 ft | 454 kts | 63° |
| 2026-04-23 02:24 | -4.64412 | 108.95868 | 36893 ft | 454 kts | 63° |
| 2026-04-23 02:24 | -4.61682 | 109.01572 | 36894 ft | 454 kts | 63° |
| 2026-04-23 02:25 | -4.58960 | 109.07284 | 36898 ft | 454 kts | 63° |
| 2026-04-23 02:25 | -4.56243 | 109.13003 | 36904 ft | 454 kts | 63° |
| 2026-04-23 02:26 | -4.53523 | 109.18721 | 36901 ft | 455 kts | 63° |
| 2026-04-23 02:26 | -4.50800 | 109.24441 | 36905 ft | 455 kts | 63° |
| 2026-04-23 02:27 | -4.48076 | 109.30161 | 36911 ft | 455 kts | 63° |
| 2026-04-23 02:27 | -4.45354 | 109.35885 | 36909 ft | 455 kts | 63° |
| 2026-04-23 02:28 | -4.42629 | 109.41605 | 36907 ft | 455 kts | 63° |
| 2026-04-23 02:28 | -4.39902 | 109.47323 | 36912 ft | 455 kts | 63° |
| 2026-04-23 02:29 | -4.37193 | 109.53000 | 36907 ft | 455 kts | 63° |
| 2026-04-23 02:29 | -4.34463 | 109.58720 | 36904 ft | 455 kts | 63° |
| 2026-04-23 02:30 | -4.31733 | 109.64435 | 36920 ft | 455 kts | 64° |
| 2026-04-23 02:30 | -4.29015 | 109.70155 | 36936 ft | 454 kts | 64° |
| 2026-04-23 02:31 | -4.26294 | 109.75864 | 36940 ft | 454 kts | 64° |
| 2026-04-23 02:31 | -4.23568 | 109.81569 | 36941 ft | 454 kts | 64° |
| 2026-04-23 02:32 | -4.20843 | 109.87261 | 36940 ft | 453 kts | 64° |
| 2026-04-23 02:32 | -4.18129 | 109.92960 | 36939 ft | 453 kts | 64° |
| 2026-04-23 02:33 | -4.15410 | 109.98656 | 36938 ft | 453 kts | 64° |
| 2026-04-23 02:33 | -4.12701 | 110.04309 | 36938 ft | 453 kts | 64° |
| 2026-04-23 02:34 | -4.09985 | 110.10001 | 36937 ft | 453 kts | 64° |
| 2026-04-23 02:34 | -4.07265 | 110.15694 | 36936 ft | 453 kts | 64° |
| 2026-04-23 02:35 | -4.04549 | 110.21392 | 36920 ft | 454 kts | 64° |
| 2026-04-23 02:35 | -4.01819 | 110.27102 | 36912 ft | 455 kts | 64° |
| 2026-04-23 02:36 | -3.99073 | 110.32821 | 36915 ft | 456 kts | 64° |
| 2026-04-23 02:36 | -3.96335 | 110.38548 | 36928 ft | 456 kts | 64° |
| 2026-04-23 02:37 | -3.93596 | 110.44283 | 36930 ft | 456 kts | 64° |
| 2026-04-23 02:37 | -3.90849 | 110.50013 | 36931 ft | 457 kts | 64° |
| 2026-04-23 02:38 | -3.88118 | 110.55708 | 36933 ft | 457 kts | 64° |
| 2026-04-23 02:38 | -3.85374 | 110.61444 | 36933 ft | 457 kts | 64° |
| 2026-04-23 02:39 | -3.82632 | 110.67186 | 36934 ft | 457 kts | 64° |
| 2026-04-23 02:39 | -3.79892 | 110.72924 | 36935 ft | 457 kts | 64° |
| 2026-04-23 02:40 | -3.77141 | 110.78652 | 36939 ft | 456 kts | 65° |
| 2026-04-23 02:40 | -3.74387 | 110.84379 | 36932 ft | 457 kts | 65° |
| 2026-04-23 02:41 | -3.71637 | 110.90120 | 36911 ft | 458 kts | 65° |
| 2026-04-23 02:41 | -3.68877 | 110.95888 | 36896 ft | 460 kts | 65° |
| 2026-04-23 02:42 | -3.66099 | 111.01688 | 36892 ft | 463 kts | 65° |
| 2026-04-23 02:42 | -3.63298 | 111.07519 | 36892 ft | 466 kts | 65° |
| 2026-04-23 02:43 | -3.60487 | 111.13371 | 36895 ft | 467 kts | 65° |
| 2026-04-23 02:43 | -3.57689 | 111.19203 | 36905 ft | 468 kts | 65° |
| 2026-04-23 02:44 | -3.54872 | 111.25085 | 36912 ft | 469 kts | 65° |
| 2026-04-23 02:44 | -3.52049 | 111.30969 | 36917 ft | 469 kts | 65° |
| 2026-04-23 02:45 | -3.49227 | 111.36852 | 36916 ft | 468 kts | 64° |
| 2026-04-23 02:45 | -3.46412 | 111.42717 | 36924 ft | 467 kts | 65° |
| 2026-04-23 02:46 | -3.43598 | 111.48575 | 36919 ft | 466 kts | 64° |
| 2026-04-23 02:46 | -3.40784 | 111.54422 | 36916 ft | 466 kts | 64° |
| 2026-04-23 02:47 | -3.37975 | 111.60268 | 36918 ft | 466 kts | 65° |
| 2026-04-23 02:47 | -3.35169 | 111.66113 | 36914 ft | 466 kts | 65° |
| 2026-04-23 02:48 | -3.32365 | 111.71948 | 36908 ft | 466 kts | 64° |
| 2026-04-23 02:48 | -3.29555 | 111.77788 | 36911 ft | 466 kts | 64° |
| 2026-04-23 02:49 | -3.26751 | 111.83627 | 36907 ft | 466 kts | 64° |
| 2026-04-23 02:49 | -3.23943 | 111.89465 | 36908 ft | 465 kts | 64° |
| 2026-04-23 02:50 | -3.21153 | 111.95260 | 36907 ft | 466 kts | 64° |
| 2026-04-23 02:50 | -3.18344 | 112.01103 | 36909 ft | 466 kts | 64° |
| 2026-04-23 02:51 | -3.15537 | 112.06935 | 36902 ft | 465 kts | 65° |
| 2026-04-23 02:51 | -3.12733 | 112.12772 | 36902 ft | 465 kts | 64° |
| 2026-04-23 02:52 | -3.09921 | 112.18608 | 36906 ft | 465 kts | 64° |
| 2026-04-23 02:52 | -3.07109 | 112.24444 | 36906 ft | 465 kts | 64° |
| 2026-04-23 02:53 | -3.04302 | 112.30278 | 36902 ft | 465 kts | 65° |
| 2026-04-23 02:53 | -3.01725 | 112.36213 | 36905 ft | 465 kts | 69° |
| 2026-04-23 02:54 | -2.99422 | 112.42267 | 36906 ft | 465 kts | 70° |
| 2026-04-23 02:54 | -2.97141 | 112.48323 | 36902 ft | 465 kts | 69° |
| 2026-04-23 02:55 | -2.94793 | 112.54309 | 36896 ft | 465 kts | 69° |
| 2026-04-23 02:55 | -2.92393 | 112.60328 | 36900 ft | 466 kts | 69° |
| 2026-04-23 02:56 | -2.90000 | 112.66346 | 36893 ft | 466 kts | 69° |
| 2026-04-23 02:56 | -2.87618 | 112.72377 | 36898 ft | 466 kts | 69° |
| 2026-04-23 02:57 | -2.85234 | 112.78405 | 36895 ft | 466 kts | 69° |
| 2026-04-23 02:57 | -2.82844 | 112.84436 | 36897 ft | 466 kts | 69° |
| 2026-04-23 02:58 | -2.80459 | 112.90467 | 36902 ft | 466 kts | 69° |
| 2026-04-23 02:58 | -2.78079 | 112.96495 | 36895 ft | 466 kts | 69° |
| 2026-04-23 02:59 | -2.76104 | 113.01508 | 36895 ft | 466 kts | 69° |
| 2026-04-23 02:59 | -2.73716 | 113.07534 | 36903 ft | 466 kts | 69° |
| 2026-04-23 03:00 | -2.71322 | 113.13560 | 36908 ft | 466 kts | 69° |
| 2026-04-23 03:00 | -2.68936 | 113.19572 | 36907 ft | 464 kts | 69° |
| 2026-04-23 03:01 | -2.66565 | 113.25564 | 36927 ft | 463 kts | 69° |
| 2026-04-23 03:01 | -2.64217 | 113.31503 | 36916 ft | 462 kts | 69° |
| 2026-04-23 03:02 | -2.61856 | 113.37467 | 36925 ft | 461 kts | 69° |
| 2026-04-23 03:02 | -2.58951 | 113.43161 | 36905 ft | 461 kts | 57° |
| 2026-04-23 03:03 | -2.55423 | 113.48504 | 36908 ft | 460 kts | 57° |
| 2026-04-23 03:03 | -2.51904 | 113.53850 | 36916 ft | 460 kts | 57° |
| 2026-04-23 03:04 | -2.48388 | 113.59206 | 36903 ft | 461 kts | 57° |
| 2026-04-23 03:04 | -2.44872 | 113.64563 | 36902 ft | 461 kts | 57° |
| 2026-04-23 03:05 | -2.41355 | 113.69924 | 36904 ft | 461 kts | 57° |
| 2026-04-23 03:05 | -2.37833 | 113.75285 | 36904 ft | 461 kts | 57° |
| 2026-04-23 03:06 | -2.34325 | 113.80604 | 36903 ft | 461 kts | 57° |
| 2026-04-23 03:06 | -2.30798 | 113.85956 | 36906 ft | 461 kts | 57° |
| 2026-04-23 03:07 | -2.27283 | 113.91314 | 36903 ft | 461 kts | 57° |
| 2026-04-23 03:07 | -2.24032 | 113.96813 | 36902 ft | 459 kts | 67° |
| 2026-04-23 03:08 | -2.21472 | 114.02660 | 36899 ft | 459 kts | 66° |
| 2026-04-23 03:08 | -2.18907 | 114.08511 | 36905 ft | 460 kts | 66° |
| 2026-04-23 03:09 | -2.16338 | 114.14365 | 36901 ft | 460 kts | 66° |
| 2026-04-23 03:09 | -2.13764 | 114.20215 | 36895 ft | 460 kts | 66° |
| 2026-04-23 03:10 | -2.11207 | 114.26026 | 36906 ft | 460 kts | 66° |
| 2026-04-23 03:10 | -2.08644 | 114.31883 | 36909 ft | 459 kts | 67° |
| 2026-04-23 03:11 | -2.06078 | 114.37731 | 36902 ft | 459 kts | 66° |
| 2026-04-23 03:11 | -2.03510 | 114.43566 | 36899 ft | 458 kts | 66° |
| 2026-04-23 03:12 | -2.00947 | 114.49403 | 36900 ft | 458 kts | 66° |
| 2026-04-23 03:12 | -1.98382 | 114.55240 | 36892 ft | 459 kts | 66° |
| 2026-04-23 03:13 | -1.95812 | 114.61082 | 36903 ft | 459 kts | 66° |
| 2026-04-23 03:13 | -1.93258 | 114.66880 | 36902 ft | 459 kts | 66° |
| 2026-04-23 03:14 | -1.90691 | 114.72717 | 36896 ft | 459 kts | 66° |
| 2026-04-23 03:14 | -1.88125 | 114.78557 | 36902 ft | 459 kts | 66° |
| 2026-04-23 03:15 | -1.85555 | 114.84397 | 36896 ft | 459 kts | 66° |
| 2026-04-23 03:15 | -1.82986 | 114.90248 | 36899 ft | 459 kts | 66° |
| 2026-04-23 03:16 | -1.80417 | 114.96087 | 36889 ft | 459 kts | 66° |
| 2026-04-23 03:16 | -1.76560 | 115.04857 | 36892 ft | 460 kts | 66° |
| 2026-04-23 03:17 | -1.73988 | 115.10714 | 36901 ft | 460 kts | 66° |
| 2026-04-23 03:17 | -1.71428 | 115.16522 | 36898 ft | 460 kts | 66° |
| 2026-04-23 03:18 | -1.68851 | 115.22376 | 36898 ft | 460 kts | 66° |
| 2026-04-23 03:18 | -1.66352 | 115.28268 | 36899 ft | 460 kts | 68° |
| 2026-04-23 03:19 | -1.63954 | 115.34204 | 36901 ft | 461 kts | 69° |
| 2026-04-23 03:19 | -1.61556 | 115.40144 | 36908 ft | 460 kts | 69° |
| 2026-04-23 03:20 | -1.59134 | 115.46058 | 36943 ft | 459 kts | 68° |
| 2026-04-23 03:20 | -1.56706 | 115.51940 | 36945 ft | 457 kts | 68° |
| 2026-04-23 03:21 | -1.54296 | 115.57804 | 36940 ft | 456 kts | 68° |
| 2026-04-23 03:21 | -1.51904 | 115.63636 | 36941 ft | 456 kts | 68° |
| 2026-04-23 03:22 | -1.49496 | 115.69495 | 36940 ft | 455 kts | 68° |
| 2026-04-23 03:22 | -1.47095 | 115.75341 | 36939 ft | 454 kts | 68° |
| 2026-04-23 03:23 | -1.44700 | 115.81182 | 36936 ft | 454 kts | 68° |
| 2026-04-23 03:23 | -1.42300 | 115.87014 | 36935 ft | 454 kts | 68° |
| 2026-04-23 03:24 | -1.39900 | 115.92849 | 36929 ft | 454 kts | 68° |
| 2026-04-23 03:24 | -1.37498 | 115.98682 | 36919 ft | 454 kts | 68° |
| 2026-04-23 03:25 | -1.35101 | 116.04524 | 36914 ft | 454 kts | 68° |
| 2026-04-23 03:25 | -1.32720 | 116.10328 | 36910 ft | 455 kts | 68° |
| 2026-04-23 03:26 | -1.30317 | 116.16176 | 36932 ft | 454 kts | 68° |
| 2026-04-23 03:26 | -1.27918 | 116.22014 | 36935 ft | 454 kts | 68° |
| 2026-04-23 03:27 | -1.25524 | 116.27844 | 36930 ft | 454 kts | 68° |
| 2026-04-23 03:27 | -1.23127 | 116.33672 | 36930 ft | 453 kts | 68° |
| 2026-04-23 03:28 | -1.20730 | 116.39503 | 36930 ft | 453 kts | 68° |
| 2026-04-23 03:28 | -1.18336 | 116.45329 | 36929 ft | 453 kts | 68° |
| 2026-04-23 03:29 | -1.17152 | 116.48208 | 36930 ft | 453 kts | 68° |
| 2026-04-23 03:29 | -1.14764 | 116.53996 | 36933 ft | 453 kts | 68° |
| 2026-04-23 03:30 | -1.12374 | 116.59812 | 36938 ft | 452 kts | 68° |
| 2026-04-23 03:30 | -1.09985 | 116.65620 | 36938 ft | 452 kts | 68° |
| 2026-04-23 03:31 | -1.07597 | 116.71420 | 36936 ft | 451 kts | 68° |
| 2026-04-23 03:31 | -1.05210 | 116.77215 | 36937 ft | 451 kts | 68° |
| 2026-04-23 03:32 | -1.02828 | 116.83016 | 36932 ft | 451 kts | 68° |
| 2026-04-23 03:32 | -1.00449 | 116.88810 | 36931 ft | 451 kts | 68° |
| 2026-04-23 03:33 | -0.98065 | 116.94611 | 36931 ft | 451 kts | 68° |
| 2026-04-23 03:33 | -0.95680 | 117.00413 | 36934 ft | 451 kts | 68° |
| 2026-04-23 03:34 | -0.93295 | 117.06213 | 36934 ft | 451 kts | 68° |
| 2026-04-23 03:34 | -0.90910 | 117.12011 | 36903 ft | 452 kts | 68° |
| 2026-04-23 03:35 | -0.88536 | 117.17785 | 36887 ft | 453 kts | 68° |
| 2026-04-23 03:35 | -0.86143 | 117.23620 | 36877 ft | 454 kts | 68° |
| 2026-04-23 03:36 | -0.83742 | 117.29466 | 36881 ft | 455 kts | 68° |
| 2026-04-23 03:36 | -0.81336 | 117.35321 | 36884 ft | 456 kts | 68° |
| 2026-04-23 03:37 | -0.78929 | 117.41181 | 36884 ft | 456 kts | 68° |
| 2026-04-23 03:37 | -0.76515 | 117.47040 | 36888 ft | 456 kts | 68° |
| 2026-04-23 03:38 | -0.74108 | 117.52902 | 36882 ft | 456 kts | 68° |
| 2026-04-23 03:38 | -0.71701 | 117.58771 | 36889 ft | 457 kts | 68° |
| 2026-04-23 03:39 | -0.69285 | 117.64647 | 36893 ft | 457 kts | 68° |
| 2026-04-23 03:39 | -0.66888 | 117.70480 | 36900 ft | 457 kts | 68° |
| 2026-04-23 03:40 | -0.64473 | 117.76350 | 36897 ft | 457 kts | 68° |
| 2026-04-23 03:40 | -0.62065 | 117.82222 | 36900 ft | 457 kts | 68° |
| 2026-04-23 03:41 | -0.59655 | 117.88093 | 36897 ft | 457 kts | 68° |
| 2026-04-23 03:41 | -0.57238 | 117.93959 | 36907 ft | 457 kts | 68° |
| 2026-04-23 03:42 | -0.54826 | 117.99826 | 36897 ft | 457 kts | 68° |
| 2026-04-23 03:42 | -0.52417 | 118.05696 | 36904 ft | 457 kts | 68° |
| 2026-04-23 03:43 | -0.50001 | 118.11567 | 36898 ft | 457 kts | 68° |
| 2026-04-23 03:43 | -0.47579 | 118.17436 | 36908 ft | 457 kts | 68° |
| 2026-04-23 03:44 | -0.45161 | 118.23305 | 36905 ft | 457 kts | 68° |
| 2026-04-23 03:44 | -0.42770 | 118.29137 | 36903 ft | 457 kts | 68° |
| 2026-04-23 03:45 | -0.40352 | 118.35012 | 36896 ft | 458 kts | 68° |
| 2026-04-23 03:45 | -0.37927 | 118.40899 | 36893 ft | 458 kts | 68° |
| 2026-04-23 03:46 | -0.35948 | 118.46936 | 36902 ft | 458 kts | 78° |
| 2026-04-23 03:46 | -0.34600 | 118.53155 | 36899 ft | 458 kts | 78° |
| 2026-04-23 03:47 | -0.33246 | 118.59380 | 36901 ft | 458 kts | 78° |
| 2026-04-23 03:47 | -0.31879 | 118.65597 | 36900 ft | 458 kts | 78° |
| 2026-04-23 03:48 | -0.30516 | 118.71823 | 36908 ft | 459 kts | 78° |
| 2026-04-23 03:48 | -0.29152 | 118.78045 | 36910 ft | 459 kts | 78° |
| 2026-04-23 03:49 | -0.27793 | 118.84278 | 36905 ft | 459 kts | 78° |
| 2026-04-23 03:49 | -0.26435 | 118.90511 | 36473 ft | 458 kts | 78° |
| 2026-04-23 03:50 | -0.25754 | 118.93623 | 36030 ft | 459 kts | 78° |
| 2026-04-23 03:50 | -0.25087 | 118.96691 | 35461 ft | 457 kts | 78° |
| 2026-04-23 03:50 | -0.24410 | 118.99793 | 34931 ft | 457 kts | 77° |
| 2026-04-23 03:50 | -0.23731 | 119.02892 | 34371 ft | 457 kts | 77° |
| 2026-04-23 03:51 | -0.23052 | 119.05989 | 33815 ft | 457 kts | 77° |
| 2026-04-23 03:51 | -0.22372 | 119.09102 | 33259 ft | 459 kts | 77° |
| 2026-04-23 03:51 | -0.21693 | 119.12219 | 32695 ft | 460 kts | 77° |
| 2026-04-23 03:51 | -0.21014 | 119.15337 | 32144 ft | 458 kts | 77° |
| 2026-04-23 03:52 | -0.20337 | 119.18440 | 31594 ft | 455 kts | 77° |
| 2026-04-23 03:52 | -0.19664 | 119.21516 | 31055 ft | 451 kts | 77° |
| 2026-04-23 03:52 | -0.18996 | 119.24566 | 30517 ft | 448 kts | 77° |
| 2026-04-23 03:52 | -0.18332 | 119.27599 | 30000 ft | 444 kts | 77° |
| 2026-04-23 03:53 | -0.17677 | 119.30600 | 29491 ft | 441 kts | 77° |
| 2026-04-23 03:53 | -0.17029 | 119.33578 | 28993 ft | 436 kts | 77° |
| 2026-04-23 03:53 | -0.16384 | 119.36523 | 28508 ft | 432 kts | 77° |
| 2026-04-23 03:53 | -0.15746 | 119.39437 | 28035 ft | 427 kts | 77° |
| 2026-04-23 03:54 | -0.15114 | 119.42324 | 27558 ft | 423 kts | 77° |
| 2026-04-23 03:54 | -0.14491 | 119.45174 | 27083 ft | 418 kts | 77° |
| 2026-04-23 03:54 | -0.13875 | 119.47998 | 26608 ft | 414 kts | 77° |
| 2026-04-23 03:54 | -0.13267 | 119.50789 | 26128 ft | 408 kts | 77° |
| 2026-04-23 03:55 | -0.12777 | 119.53524 | 25649 ft | 403 kts | 85° |
| 2026-04-23 03:55 | -0.12844 | 119.56299 | 25156 ft | 398 kts | 98° |
| 2026-04-23 03:55 | -0.13507 | 119.58964 | 24656 ft | 395 kts | 109° |
| 2026-04-23 03:55 | -0.14480 | 119.61512 | 24143 ft | 391 kts | 110° |
| 2026-04-23 03:56 | -0.15447 | 119.64033 | 23636 ft | 386 kts | 110° |
| 2026-04-23 03:56 | -0.16402 | 119.66527 | 23133 ft | 383 kts | 110° |
| 2026-04-23 03:56 | -0.17347 | 119.69003 | 22637 ft | 380 kts | 110° |
| 2026-04-23 03:56 | -0.18288 | 119.71460 | 22107 ft | 378 kts | 111° |
| 2026-04-23 03:57 | -0.19618 | 119.73757 | 21216 ft | 388 kts | 129° |
| 2026-04-23 03:57 | -0.21628 | 119.75506 | 20929 ft | 382 kts | 146° |
| 2026-04-23 03:57 | -0.24046 | 119.76551 | 20651 ft | 377 kts | 165° |
| 2026-04-23 03:57 | -0.26617 | 119.76792 | 20522 ft | 367 kts | 179° |
| 2026-04-23 03:58 | -0.29091 | 119.76726 | 20391 ft | 345 kts | 179° |
| 2026-04-23 03:58 | -0.31435 | 119.76654 | 20027 ft | 333 kts | 179° |
| 2026-04-23 03:58 | -0.33734 | 119.76581 | 19475 ft | 329 kts | 179° |
| 2026-04-23 03:58 | -0.35979 | 119.76511 | 18932 ft | 326 kts | 180° |
| 2026-04-23 03:59 | -0.38232 | 119.76445 | 18377 ft | 321 kts | 180° |
| 2026-04-23 03:59 | -0.40451 | 119.76384 | 17828 ft | 318 kts | 180° |
| 2026-04-23 03:59 | -0.42656 | 119.76325 | 17274 ft | 315 kts | 180° |
| 2026-04-23 03:59 | -0.44839 | 119.76268 | 16723 ft | 312 kts | 180° |
| 2026-04-23 04:00 | -0.47002 | 119.76211 | 16171 ft | 310 kts | 180° |
| 2026-04-23 04:00 | -0.49149 | 119.76151 | 15620 ft | 308 kts | 180° |
| 2026-04-23 04:00 | -0.51282 | 119.76091 | 15068 ft | 305 kts | 180° |
| 2026-04-23 04:00 | -0.52686 | 119.76052 | 14702 ft | 304 kts | 180° |
| 2026-04-23 04:01 | -0.54800 | 119.75992 | 14155 ft | 306 kts | 180° |
| 2026-04-23 04:01 | -0.56956 | 119.75931 | 13604 ft | 313 kts | 180° |
| 2026-04-23 04:01 | -0.59862 | 119.75848 | 12860 ft | 310 kts | 180° |
| 2026-04-23 04:01 | -0.61279 | 119.75719 | 12492 ft | 309 kts | 191° |
| 2026-04-23 04:02 | -0.63043 | 119.75018 | 12004 ft | 309 kts | 212° |
| 2026-04-23 04:02 | -0.64589 | 119.73552 | 11453 ft | 309 kts | 236° |
| 2026-04-23 04:02 | -0.65430 | 119.71601 | 10894 ft | 307 kts | 260° |
| 2026-04-23 04:02 | -0.65444 | 119.69497 | 10347 ft | 303 kts | 283° |
| 2026-04-23 04:03 | -0.64666 | 119.67575 | 9801 ft | 298 kts | 306° |
| 2026-04-23 04:03 | -0.63247 | 119.66113 | 9243 ft | 294 kts | 328° |
| 2026-04-23 04:03 | -0.61449 | 119.65122 | 8696 ft | 298 kts | 336° |
| 2026-04-23 04:03 | -0.59586 | 119.64250 | 8164 ft | 291 kts | 338° |
| 2026-04-23 04:04 | -0.57777 | 119.63453 | 8004 ft | 278 kts | 339° |
| 2026-04-23 04:04 | -0.56019 | 119.62816 | 7996 ft | 259 kts | 354° |
| 2026-04-23 04:04 | -0.54266 | 119.62853 | 7937 ft | 252 kts | 14° |
| 2026-04-23 04:04 | -0.52650 | 119.63434 | 7739 ft | 242 kts | 31° |
| 2026-04-23 04:05 | -0.51316 | 119.64405 | 7680 ft | 236 kts | 46° |
| 2026-04-23 04:05 | -0.50306 | 119.65682 | 7633 ft | 234 kts | 61° |
| 2026-04-23 04:05 | -0.49697 | 119.67185 | 7579 ft | 234 kts | 77° |
| 2026-04-23 04:05 | -0.49545 | 119.68795 | 7527 ft | 234 kts | 93° |
| 2026-04-23 04:06 | -0.49866 | 119.70390 | 7471 ft | 236 kts | 109° |
| 2026-04-23 04:06 | -0.50638 | 119.71834 | 7415 ft | 237 kts | 125° |
| 2026-04-23 04:06 | -0.51783 | 119.72992 | 7372 ft | 240 kts | 141° |
| 2026-04-23 04:06 | -0.53218 | 119.73849 | 7318 ft | 242 kts | 150° |
| 2026-04-23 04:07 | -0.54737 | 119.74573 | 7262 ft | 242 kts | 153° |
| 2026-04-23 04:07 | -0.56280 | 119.75251 | 7217 ft | 242 kts | 154° |
| 2026-04-23 04:07 | -0.57824 | 119.75920 | 7155 ft | 241 kts | 154° |
| 2026-04-23 04:07 | -0.59362 | 119.76586 | 7107 ft | 241 kts | 154° |
| 2026-04-23 04:08 | -0.60893 | 119.77249 | 6985 ft | 238 kts | 153° |
| 2026-04-23 04:08 | -0.62426 | 119.77919 | 6614 ft | 244 kts | 153° |
| 2026-04-23 04:08 | -0.64010 | 119.78615 | 6156 ft | 253 kts | 153° |
| 2026-04-23 04:08 | -0.65628 | 119.79328 | 5679 ft | 254 kts | 153° |
| 2026-04-23 04:09 | -0.67237 | 119.80037 | 5237 ft | 252 kts | 153° |
| 2026-04-23 04:09 | -0.68830 | 119.80741 | 4818 ft | 249 kts | 153° |
| 2026-04-23 04:09 | -0.70404 | 119.81438 | 4341 ft | 247 kts | 153° |
| 2026-04-23 04:09 | -0.71968 | 119.82134 | 3823 ft | 245 kts | 153° |
| 2026-04-23 04:10 | -0.73521 | 119.82825 | 3296 ft | 243 kts | 154° |
| 2026-04-23 04:10 | -0.75064 | 119.83509 | 2774 ft | 242 kts | 154° |
| 2026-04-23 04:10 | -0.76565 | 119.84174 | 2587 ft | 229 kts | 154° |
| 2026-04-23 04:10 | -0.77974 | 119.84799 | 2463 ft | 215 kts | 154° |
| 2026-04-23 04:11 | -0.79308 | 119.85389 | 2335 ft | 206 kts | 154° |
| 2026-04-23 04:11 | -0.80581 | 119.85953 | 2244 ft | 191 kts | 154° |
| 2026-04-23 04:11 | -0.81738 | 119.86464 | 2114 ft | 172 kts | 154° |
| 2026-04-23 04:11 | -0.82785 | 119.86926 | 2026 ft | 157 kts | 154° |
| 2026-04-23 04:12 | -0.83759 | 119.87360 | 1802 ft | 150 kts | 153° |
| 2026-04-23 04:12 | -0.84698 | 119.87779 | 1600 ft | 147 kts | 153° |
| 2026-04-23 04:12 | -0.85616 | 119.88189 | 1420 ft | 147 kts | 152° |
| 2026-04-23 04:12 | -0.86542 | 119.88600 | 1223 ft | 145 kts | 154° |
| 2026-04-23 04:13 | -0.87465 | 119.89004 | 1051 ft | 145 kts | 155° |
| 2026-04-23 04:13 | -0.88396 | 119.89393 | 825 ft | 144 kts | 154° |
| 2026-04-23 04:13 | -0.89311 | 119.89811 | 628 ft | 144 kts | 152° |
| 2026-04-23 04:13 | -0.90222 | 119.90228 | 392 ft | 144 kts | 154° |
| 2026-04-23 04:14 | -0.91117 | 119.90634 | 239 ft | 133 kts | 154° |
| 2026-04-23 04:14 | -0.91405 | 119.90767 | 231 ft | 125 kts | 155° |
| 2026-04-23 04:14 | -0.91958 | 119.91013 | 231 ft | 60 kts | 156° |
| 2026-04-23 04:14 | -0.92255 | 119.91147 | 230 ft | 24 kts | 156° |
| 2026-04-23 04:15 | -0.92364 | 119.91179 | 229 ft | 7 kts | 149° |
| 2026-04-23 04:15 | -0.92357 | 119.91191 | 227 ft | 2 kts | 6° |
| 2026-04-23 04:15 | -0.92262 | 119.91148 | 229 ft | 17 kts | 335° |
| 2026-04-23 04:16 | -0.92123 | 119.91086 | 230 ft | 23 kts | 335° |
| 2026-04-23 04:16 | -0.91971 | 119.91016 | 231 ft | 24 kts | 335° |
| 2026-04-23 04:16 | -0.91874 | 119.90960 | 233 ft | 10 kts | 299° |
| 2026-04-23 04:16 | -0.91891 | 119.90890 | 231 ft | 12 kts | 245° |
| 2026-04-23 04:17 | -0.91922 | 119.90828 | 229 ft | 8 kts | 236° |
| 2026-04-23 04:17 | -0.91945 | 119.90786 | 229 ft | 5 kts | 246° |
| 2026-04-23 04:17 | -0.91954 | 119.90767 | 231 ft | 1 kts | 246° |
| 2026-04-23 04:17 | -0.91956 | 119.90763 | 230 ft | 0 kts | 246° |